Time;durP1;ratioP1;P1;durP2;ratioP2;P2;SDS_P1;SDS_P2;PMS_P1;PMS_P2;Temp;Humidity;BMP_temperature;BMP_pressure;BME280_temperature;BME280_humidity;BME280_pressure;Samples;Min_cycle;Max_cycle;Signal;HPM_P1;HPM_P2
2022/04/15 00:00:36;;;;;;;32.30;15.00;;;;;;;2.57;70.50;101565.49;105059;1278;58938;-67
2022/04/15 00:03:06;;;;;;;24.40;14.40;;;;;;;2.58;71.02;101567.85;105062;1279;60956;-66
2022/04/15 00:05:36;;;;;;;25.80;13.60;;;;;;;2.58;71.39;101564.77;105074;1278;75604;-69
2022/04/15 00:08:11;;;;;;;31.30;14.10;;;;;;;2.55;71.40;101562.09;105073;1279;72360;-69
2022/04/15 00:10:45;;;;;;;27.30;13.80;;;;;;;2.58;71.17;101563.92;105077;1278;68809;-68
2022/04/15 00:13:19;;;;;;;27.70;14.10;;;;;;;2.54;69.99;101561.11;105030;1279;74594;-70
2022/04/15 00:15:48;;;;;;;22.90;14.80;;;;;;;2.43;71.69;101559.65;104829;1280;59815;-69
2022/04/15 00:18:18;;;;;;;29.20;15.50;;;;;;;2.36;72.03;101560.66;105053;1278;60665;-68
2022/04/15 00:20:47;;;;;;;32.10;15.60;;;;;;;2.33;71.85;101558.69;105064;1279;74534;-68
2022/04/15 00:23:18;;;;;;;26.40;13.80;;;;;;;2.33;72.18;101568.81;105029;1278;70588;-68
2022/04/15 00:25:47;;;;;;;26.00;15.90;;;;;;;2.33;72.27;101564.54;105015;1278;70505;-69
2022/04/15 00:28:16;;;;;;;27.60;15.30;;;;;;;2.31;70.69;101557.54;105059;1278;73763;-71
2022/04/15 00:30:46;;;;;;;26.70;15.30;;;;;;;2.27;71.07;101556.95;105036;1278;59730;-70
2022/04/15 00:33:15;;;;;;;25.30;14.90;;;;;;;2.24;71.99;101556.66;105059;1278;61187;-70
2022/04/15 00:35:44;;;;;;;28.40;16.10;;;;;;;2.22;72.15;101551.39;105020;1279;72626;-71
2022/04/15 00:38:13;;;;;;;34.10;15.10;;;;;;;2.19;72.32;101549.05;104990;1279;70329;-71
2022/04/15 00:40:42;;;;;;;25.10;14.00;;;;;;;2.21;72.51;101545.25;105070;1279;67336;-71
2022/04/15 00:43:11;;;;;;;26.00;12.90;;;;;;;2.21;72.46;101544.54;105010;1278;74521;-69
2022/04/15 00:45:47;;;;;;;24.90;12.90;;;;;;;2.21;72.23;101538.00;105067;1278;59579;-70
2022/04/15 00:48:19;;;;;;;34.20;15.10;;;;;;;2.20;72.35;101533.23;105080;1278;61807;-68
2022/04/15 00:50:48;;;;;;;27.40;13.80;;;;;;;2.17;72.04;101530.90;105064;1279;72535;-67
2022/04/15 00:53:23;;;;;;;24.40;13.70;;;;;;;2.14;72.29;101534.95;104996;1279;71308;-70
2022/04/15 00:55:57;;;;;;;26.00;14.80;;;;;;;2.11;72.10;101525.20;105087;1278;70057;-70
2022/04/15 00:58:27;;;;;;;25.40;13.10;;;;;;;2.10;72.22;101520.08;104974;1279;72774;-70
2022/04/15 01:00:57;;;;;;;26.00;13.50;;;;;;;2.10;72.51;101516.81;105040;1278;59602;-70
2022/04/15 01:03:28;;;;;;;25.80;13.10;;;;;;;2.09;72.55;101508.56;105083;1279;60806;-67
2022/04/15 01:06:04;;;;;;;26.90;13.70;;;;;;;2.15;72.43;101504.14;107085;1279;75272;-69
2022/04/15 01:08:38;;;;;;;26.80;14.10;;;;;;;2.17;72.63;101501.67;105061;1278;72803;-71
2022/04/15 01:11:10;;;;;;;22.30;12.60;;;;;;;2.16;72.26;101498.80;105050;1278;70766;-68
2022/04/15 01:13:40;;;;;;;27.00;13.00;;;;;;;2.13;71.04;101502.64;104938;1278;73777;-69
2022/04/15 01:16:09;;;;;;;23.90;12.60;;;;;;;2.05;70.19;101506.61;105062;1278;60830;-66
2022/04/15 01:18:39;;;;;;;26.00;12.80;;;;;;;1.95;70.92;101504.11;104908;1279;61022;-65
2022/04/15 01:21:12;;;;;;;25.00;12.50;;;;;;;1.94;72.89;101503.79;105091;1278;73495;-67
2022/04/15 01:23:41;;;;;;;22.60;13.00;;;;;;;1.98;73.35;101498.20;105130;1279;69818;-67
2022/04/15 01:26:10;;;;;;;27.60;12.90;;;;;;;2.02;72.97;101498.95;105127;1278;68947;-69
2022/04/15 01:28:39;;;;;;;25.40;12.90;;;;;;;2.07;72.65;101499.70;104886;1281;72925;-69
2022/04/15 01:31:08;;;;;;;27.60;13.80;;;;;;;2.06;72.83;101497.14;105014;1278;61755;-71
2022/04/15 01:33:37;;;;;;;20.60;11.40;;;;;;;2.07;72.72;101492.98;105083;1278;60763;-67
2022/04/15 01:36:05;;;;;;;26.70;12.90;;;;;;;2.07;72.65;101493.84;105048;1278;74399;-70
2022/04/15 01:38:36;;;;;;;25.90;12.90;;;;;;;2.06;72.53;101492.35;105062;1279;70560;-71
2022/04/15 01:41:05;;;;;;;25.90;13.40;;;;;;;2.03;72.61;101483.81;104874;1279;68964;-71
2022/04/15 01:43:34;;;;;;;23.60;12.90;;;;;;;1.99;72.92;101484.61;104894;1278;72603;-69
2022/04/15 01:46:03;;;;;;;28.90;13.10;;;;;;;1.99;72.76;101484.78;104951;1278;59949;-70
2022/04/15 01:48:32;;;;;;;25.90;12.70;;;;;;;1.97;72.48;101485.32;104915;1278;59292;-71
2022/04/15 01:51:01;;;;;;;24.90;13.60;;;;;;;1.97;72.74;101483.27;104942;1279;73579;-69
2022/04/15 01:53:30;;;;;;;23.30;12.50;;;;;;;1.94;72.67;101483.00;104884;1279;73388;-71
2022/04/15 01:55:58;;;;;;;27.20;13.20;;;;;;;1.91;72.79;101485.81;104845;1278;70430;-70
2022/04/15 01:58:27;;;;;;;25.80;12.40;;;;;;;1.87;73.08;101486.60;104913;1278;74867;-71
2022/04/15 02:00:56;;;;;;;26.00;12.40;;;;;;;1.83;73.08;101484.29;104903;1279;62234;-70
2022/04/15 02:03:25;;;;;;;25.60;12.60;;;;;;;1.80;73.10;101482.29;104851;1278;60068;-71
2022/04/15 02:05:54;;;;;;;18.90;10.90;;;;;;;1.77;73.12;101486.15;104807;1278;75426;-69
2022/04/15 02:08:23;;;;;;;22.50;11.40;;;;;;;1.73;73.20;101480.23;104821;1279;71621;-69
2022/04/15 02:10:52;;;;;;;23.10;12.20;;;;;;;1.73;73.63;101478.34;104921;1278;68113;-70
2022/04/15 02:13:21;;;;;;;28.90;13.60;;;;;;;1.67;71.91;101480.20;104972;1279;72442;-70
2022/04/15 02:15:50;;;;;;;28.30;13.60;;;;;;;1.61;74.00;101474.17;104987;1278;61581;-71
2022/04/15 02:18:19;;;;;;;28.90;13.00;;;;;;;1.66;73.80;101474.05;104897;1278;61229;-70
2022/04/15 02:20:53;;;;;;;27.60;13.50;;;;;;;1.64;73.98;101471.00;104943;1279;73140;-70
2022/04/15 02:23:22;;;;;;;29.60;12.90;;;;;;;1.63;74.03;101467.42;104955;1278;70064;-70
2022/04/15 02:25:51;;;;;;;24.40;11.30;;;;;;;1.62;73.49;101465.89;104951;1278;69665;-75
2022/04/15 02:28:20;;;;;;;25.30;12.60;;;;;;;1.62;74.48;101465.56;104993;1278;71618;-71
2022/04/15 02:30:49;;;;;;;18.30;11.30;;;;;;;1.63;74.29;101465.54;104926;1279;59894;-69
2022/04/15 02:33:18;;;;;;;23.90;11.90;;;;;;;1.62;74.31;101463.49;104851;1279;59182;-70
2022/04/15 02:35:48;;;;;;;19.90;11.50;;;;;;;1.58;73.64;101460.67;104966;1279;74735;-71
2022/04/15 02:38:17;;;;;;;23.90;11.80;;;;;;;1.55;74.51;101460.40;104870;1278;73197;-68
2022/04/15 02:40:45;;;;;;;22.10;12.50;;;;;;;1.53;74.64;101460.78;104873;1278;68706;-69
2022/04/15 02:43:15;;;;;;;21.30;11.40;;;;;;;1.51;74.64;101459.45;104839;1278;75077;-67
2022/04/15 02:45:45;;;;;;;21.60;11.90;;;;;;;1.47;74.54;101458.02;104929;1279;61430;-68
2022/04/15 02:48:14;;;;;;;21.70;10.80;;;;;;;1.43;74.98;101458.27;104991;1278;61836;-68
2022/04/15 02:50:45;;;;;;;24.50;12.20;;;;;;;1.38;74.40;101453.92;104891;1279;74166;-69
2022/04/15 02:53:14;;;;;;;24.10;12.50;;;;;;;1.33;74.55;101455.06;105036;1278;71546;-70
2022/04/15 02:55:42;;;;;;;26.50;13.80;;;;;;;1.26;74.50;101454.02;105041;1278;70334;-68
2022/04/15 02:58:11;;;;;;;24.60;12.40;;;;;;;1.22;76.11;101451.69;105030;1278;72584;-69
2022/04/15 03:00:40;;;;;;;21.90;12.10;;;;;;;1.21;75.97;101450.00;105014;1278;60577;-69
2022/04/15 03:03:09;;;;;;;21.40;11.60;;;;;;;1.22;75.69;101449.63;104989;1281;59906;-70
2022/04/15 03:05:39;;;;;;;23.50;12.70;;;;;;;1.24;75.72;101451.98;104911;1280;72305;-70
2022/04/15 03:08:09;;;;;;;28.90;13.00;;;;;;;1.23;76.07;101447.71;105217;1278;70558;-69
2022/04/15 03:10:37;;;;;;;21.20;11.80;;;;;;;1.22;75.95;101446.18;105275;1278;70053;-69
2022/04/15 03:13:06;;;;;;;22.40;11.70;;;;;;;1.21;75.97;101447.77;105139;1278;71736;-71
2022/04/15 03:15:37;;;;;;;24.10;11.30;;;;;;;1.23;76.05;101447.55;104975;1280;61570;-70
2022/04/15 03:18:06;;;;;;;26.10;14.10;;;;;;;1.27;75.92;101449.51;105088;1279;61837;-71
2022/04/15 03:20:35;;;;;;;31.30;15.20;;;;;;;1.35;75.44;101450.21;105112;1278;74866;-71
2022/04/15 03:23:04;;;;;;;22.90;13.10;;;;;;;1.37;74.96;101454.45;105173;1278;71853;-71
2022/04/15 03:25:33;;;;;;;26.10;13.90;;;;;;;1.36;75.10;101454.48;105294;1278;68932;-72
2022/04/15 03:28:04;;;;;;;27.50;13.90;;;;;;;1.35;75.39;101456.20;105356;1278;73913;-71
2022/04/15 03:30:33;;;;;;;24.80;13.50;;;;;;;1.35;75.24;101455.35;105263;1278;62891;-71
2022/04/15 03:33:01;;;;;;;28.90;13.90;;;;;;;1.34;75.40;101453.48;105270;1278;60933;-70
2022/04/15 03:35:31;;;;;;;27.70;14.50;;;;;;;1.35;75.62;101454.15;105350;1279;73486;-72
2022/04/15 03:38:00;;;;;;;28.90;13.80;;;;;;;1.37;75.56;101456.69;104962;1279;72301;-70
2022/04/15 03:40:29;;;;;;;22.30;13.90;;;;;;;1.38;75.40;101462.67;104994;1278;71483;-70
2022/04/15 03:42:58;;;;;;;27.60;14.60;;;;;;;1.38;75.55;101464.06;105108;1279;73598;-70
2022/04/15 03:45:28;;;;;;;28.20;13.90;;;;;;;1.37;75.59;101461.15;105117;1279;60334;-69
2022/04/15 03:47:57;;;;;;;29.40;15.30;;;;;;;1.37;75.47;101459.27;105167;1278;59574;-73
2022/04/15 03:50:26;;;;;;;29.20;14.90;;;;;;;1.38;75.56;101458.92;105039;1279;74008;-71
2022/04/15 03:52:55;;;;;;;39.70;19.40;;;;;;;1.38;75.96;101455.80;105031;1277;73612;-70
2022/04/15 03:55:27;;;;;;;31.40;15.40;;;;;;;1.37;75.33;101456.00;105019;1279;69825;-68
2022/04/15 03:57:56;;;;;;;29.40;12.80;;;;;;;1.36;74.02;101452.77;104756;1278;74650;-70
2022/04/15 04:00:25;;;;;;;28.50;14.70;;;;;;;1.31;73.26;101450.48;104774;1281;61055;-69
2022/04/15 04:02:55;;;;;;;26.40;12.70;;;;;;;1.28;74.42;101449.52;105102;1278;61916;-68
2022/04/15 04:05:24;;;;;;;28.80;13.70;;;;;;;1.31;74.28;101450.14;105083;1279;75172;-69
2022/04/15 04:07:53;;;;;;;28.20;13.90;;;;;;;1.33;72.98;101453.51;105174;1278;70750;-70
2022/04/15 04:10:22;;;;;;;40.40;15.40;;;;;;;1.38;74.68;101453.05;105159;1279;68094;-73
2022/04/15 04:12:51;;;;;;;34.30;16.10;;;;;;;1.47;73.83;101459.38;105223;1278;70730;-78
2022/04/15 04:15:20;;;;;;;35.00;18.50;;;;;;;1.55;75.48;101455.75;105004;1278;59676;-70
2022/04/15 04:17:49;;;;;;;36.40;20.30;;;;;;;1.67;75.79;101452.73;105062;1279;58978;-71
2022/04/15 04:20:18;;;;;;;38.00;19.40;;;;;;;1.77;75.30;101452.32;105289;1279;72726;-72
2022/04/15 04:22:47;;;;;;;34.10;17.60;;;;;;;1.83;74.97;101454.41;105266;1278;69805;-71
2022/04/15 04:25:16;;;;;;;29.90;14.10;;;;;;;1.92;73.85;101457.96;105360;1279;69406;-72
2022/04/15 04:27:45;;;;;;;35.40;14.70;;;;;;;1.96;72.52;101457.71;105299;1278;71006;-75
2022/04/15 04:30:15;;;;;;;26.20;12.70;;;;;;;1.94;71.99;101460.50;105503;1278;60049;-71
2022/04/15 04:32:52;;;;;;;27.30;14.00;;;;;;;1.92;71.92;101456.76;105346;1279;59879;-70
2022/04/15 04:35:22;;;;;;;28.10;13.50;;;;;;;1.88;71.60;101457.39;105092;1278;73698;-71
2022/04/15 04:37:51;;;;;;;28.30;13.10;;;;;;;1.85;71.61;101454.18;105128;1278;72262;-75
2022/04/15 04:40:19;;;;;;;28.90;13.00;;;;;;;1.81;71.49;101450.66;105016;1278;71177;-73
2022/04/15 04:42:52;;;;;;;27.70;12.90;;;;;;;1.76;71.15;101449.94;104873;1280;75154;-71
2022/04/15 04:45:21;;;;;;;23.20;11.60;;;;;;;1.77;71.25;101454.04;104849;1280;60835;-71
2022/04/15 04:47:50;;;;;;;25.50;11.20;;;;;;;1.77;70.95;101454.03;104877;1279;62390;-73
2022/04/15 04:50:20;;;;;;;29.30;13.60;;;;;;;1.75;71.24;101456.52;104835;1280;72194;-73
2022/04/15 04:52:49;;;;;;;29.20;13.40;;;;;;;1.73;71.18;101453.27;105060;1278;73346;-76
2022/04/15 04:55:21;;;;;;;19.90;12.30;;;;;;;1.79;71.11;101461.55;104974;1278;68945;-67
2022/04/15 04:57:51;;;;;;;29.90;14.60;;;;;;;1.87;71.09;101459.29;104804;1280;72292;-74
2022/04/15 05:00:19;;;;;;;33.10;15.10;;;;;;;1.95;71.13;101454.29;104710;1281;59913;-71
2022/04/15 05:02:48;;;;;;;30.00;14.50;;;;;;;2.08;71.84;101454.84;105111;1278;59478;-71
2022/04/15 05:05:17;;;;;;;39.40;15.40;;;;;;;2.23;71.21;101455.11;105107;1278;74925;-73
2022/04/15 05:07:46;;;;;;;35.30;15.80;;;;;;;2.45;71.00;101453.36;104956;1280;70646;-70
2022/04/15 05:10:15;;;;;;;32.10;16.00;;;;;;;2.65;70.60;101457.44;104855;1280;71170;-72
2022/04/15 05:12:45;;;;;;;37.30;17.40;;;;;;;2.85;70.11;101455.16;105107;1280;74460;-73
2022/04/15 05:15:14;;;;;;;34.30;17.20;;;;;;;3.08;69.22;101453.80;105138;1279;59874;-71
2022/04/15 05:17:43;;;;;;;29.20;15.30;;;;;;;3.30;68.42;101448.65;105055;1281;62033;-71
2022/04/15 05:20:13;;;;;;;35.00;15.70;;;;;;;3.47;68.38;101447.98;105010;1279;74196;-72
2022/04/15 05:22:44;;;;;;;39.40;15.90;;;;;;;3.61;68.16;101449.61;104891;1280;73962;-72
2022/04/15 05:25:14;;;;;;;41.50;17.20;;;;;;;3.77;67.49;101450.84;104867;1280;68723;-71
2022/04/15 05:27:43;;;;;;;40.30;17.20;;;;;;;3.91;67.60;101451.22;104839;1279;73056;-71
2022/04/15 05:30:12;;;;;;;36.60;16.00;;;;;;;4.06;67.01;101453.48;104870;1281;59701;-74
2022/04/15 05:32:42;;;;;;;34.70;16.80;;;;;;;4.22;66.52;101451.37;104862;1280;61538;-70
2022/04/15 05:35:11;;;;;;;33.20;18.40;;;;;;;4.40;65.78;101447.32;105011;1279;74561;-70
2022/04/15 05:37:40;;;;;;;43.00;19.60;;;;;;;4.60;65.56;101447.99;104909;1279;70214;-69
2022/04/15 05:40:09;;;;;;;36.40;19.00;;;;;;;4.81;64.30;101446.70;104817;1281;71269;-70
2022/04/15 05:42:38;;;;;;;44.50;21.10;;;;;;;5.01;64.11;101445.61;105002;1278;71255;-71
2022/04/15 05:45:08;;;;;;;44.40;21.50;;;;;;;5.23;63.07;101442.91;105021;1278;59673;-68
2022/04/15 05:47:39;;;;;;;40.20;20.40;;;;;;;5.45;62.56;101439.11;104935;1281;59765;-69
2022/04/15 05:50:09;;;;;;;43.00;21.80;;;;;;;5.69;62.19;101433.82;104942;1278;71128;-70
2022/04/15 05:52:38;;;;;;;42.50;22.00;;;;;;;5.95;61.09;101432.94;106833;1278;71746;-70
2022/04/15 05:55:07;;;;;;;48.20;20.70;;;;;;;6.19;60.97;101431.09;104630;1279;70160;-68
2022/04/15 05:57:36;;;;;;;42.30;21.90;;;;;;;6.42;59.54;101427.16;104822;1279;73128;-68
2022/04/15 06:00:07;;;;;;;41.10;21.40;;;;;;;6.63;59.05;101426.23;105055;1279;59707;-69
2022/04/15 06:02:39;;;;;;;41.50;20.90;;;;;;;6.83;60.67;101427.42;105065;1279;59687;-71
2022/04/15 06:05:09;;;;;;;34.20;20.50;;;;;;;7.02;60.92;101424.96;105094;1281;71663;-71
2022/04/15 06:07:38;;;;;;;41.70;21.70;;;;;;;7.27;57.57;101424.15;105110;1281;69811;-68
2022/04/15 06:10:08;;;;;;;36.40;20.70;;;;;;;7.54;55.84;101415.91;105022;1280;69286;-68
2022/04/15 06:12:55;;;;;;;34.70;19.80;;;;;;;7.77;56.74;101417.23;104385;1281;630827;-71
2022/04/15 06:15:28;;;;;;;35.80;20.20;;;;;;;8.05;53.67;101411.14;104979;1279;60571;-68
2022/04/15 06:18:01;;;;;;;32.00;18.00;;;;;;;8.35;53.50;101402.17;104977;1280;62214;-73
2022/04/15 06:20:30;;;;;;;32.40;16.80;;;;;;;8.59;52.25;101399.21;105035;1280;73179;-71
2022/04/15 06:22:59;;;;;;;33.30;15.30;;;;;;;8.76;53.84;101393.95;104678;1281;72565;-74
2022/04/15 06:25:28;;;;;;;23.60;14.20;;;;;;;8.95;54.39;101394.78;104845;1281;67974;-75
2022/04/15 06:27:57;;;;;;;25.30;13.80;;;;;;;9.15;53.92;101393.20;104884;1281;72599;-71
2022/04/15 06:30:27;;;;;;;28.80;15.40;;;;;;;9.36;47.67;101391.30;104811;1279;60264;-72
2022/04/15 06:32:56;;;;;;;24.20;13.60;;;;;;;9.56;46.55;101390.17;104987;1279;60716;-71
2022/04/15 06:35:24;;;;;;;28.20;13.90;;;;;;;9.73;47.13;101392.85;104960;1278;75124;-69
2022/04/15 06:37:53;;;;;;;34.60;15.20;;;;;;;9.92;46.06;101390.02;105019;1277;73169;-72
2022/04/15 06:40:22;;;;;;;32.40;16.40;;;;;;;10.08;45.38;101386.58;105043;1279;70281;-67
2022/04/15 06:42:51;;;;;;;25.30;15.00;;;;;;;10.25;45.33;101386.80;105030;1279;74577;-69
2022/04/15 06:45:25;;;;;;;28.30;16.50;;;;;;;10.43;46.18;101387.48;104992;1279;62033;-72
2022/04/15 06:47:54;;;;;;;27.90;15.00;;;;;;;10.63;43.92;101384.31;105158;1279;61796;-69
2022/04/15 06:50:24;;;;;;;36.00;17.20;;;;;;;10.81;44.26;101384.10;104925;1276;73452;-71
2022/04/15 06:52:53;;;;;;;32.60;15.30;;;;;;;11.04;42.75;101382.33;104995;1279;70756;-70
2022/04/15 06:55:22;;;;;;;32.00;15.10;;;;;;;11.22;42.88;101378.17;105117;1280;68958;-75
2022/04/15 06:57:51;;;;;;;24.50;13.30;;;;;;;11.46;41.79;101377.14;105169;1279;73475;-73
2022/04/15 07:00:20;;;;;;;22.50;12.60;;;;;;;11.60;41.95;101374.29;105070;1279;61251;-71
2022/04/15 07:02:50;;;;;;;19.80;12.00;;;;;;;11.75;41.40;101371.75;105137;1279;61053;-71
2022/04/15 07:05:19;;;;;;;23.50;11.80;;;;;;;11.98;41.51;101372.64;105198;1277;74212;-73
2022/04/15 07:07:48;;;;;;;18.10;10.40;;;;;;;12.21;40.33;101369.17;105429;1279;72078;-72
2022/04/15 07:10:18;;;;;;;20.50;9.40;;;;;;;12.38;41.37;101367.95;105311;1279;71039;-72
2022/04/15 07:12:48;;;;;;;23.10;9.60;;;;;;;12.56;41.83;101364.98;105170;1279;74944;-69
2022/04/15 07:15:17;;;;;;;16.60;9.40;;;;;;;12.77;42.52;101361.09;105147;1279;59708;-72
2022/04/15 07:17:46;;;;;;;13.50;8.30;;;;;;;12.96;42.49;101359.46;104882;1280;59615;-71
2022/04/15 07:20:15;;;;;;;18.50;9.70;;;;;;;13.16;40.05;101364.16;104963;1279;71909;-71
2022/04/15 07:22:44;;;;;;;17.40;8.40;;;;;;;13.29;39.62;101364.34;104953;1280;69865;-73
2022/04/15 07:25:17;;;;;;;17.40;9.30;;;;;;;13.38;39.02;101360.66;105011;1279;70273;-72
2022/04/15 07:27:46;;;;;;;16.70;8.70;;;;;;;13.46;38.10;101364.42;104838;1279;73127;-71
2022/04/15 07:30:15;;;;;;;19.90;9.70;;;;;;;13.58;38.93;101361.29;104868;1279;61888;-70
2022/04/15 07:32:44;;;;;;;21.80;10.40;;;;;;;13.72;39.54;101359.68;104973;1279;61015;-71
2022/04/15 07:35:13;;;;;;;23.50;10.50;;;;;;;13.77;38.27;101360.41;104927;1279;75404;-72
2022/04/15 07:37:42;;;;;;;17.10;9.60;;;;;;;13.90;39.44;101356.04;104976;1279;73011;-72
2022/04/15 07:40:11;;;;;;;23.50;10.30;;;;;;;14.05;38.94;101349.88;104860;1279;70127;-72
2022/04/15 07:42:41;;;;;;;17.60;10.10;;;;;;;14.19;38.68;101347.33;105062;1279;71841;-71
2022/04/15 07:45:10;;;;;;;17.80;9.60;;;;;;;14.34;37.76;101342.32;105043;1279;60772;-72
2022/04/15 07:47:38;;;;;;;21.20;10.10;;;;;;;14.53;38.90;101344.20;105072;1278;61543;-74
2022/04/15 07:50:25;;;;;;;19.80;9.40;;;;;;;14.56;36.43;101340.80;105000;1279;74228;-76
2022/04/15 07:52:57;;;;;;;19.20;9.90;;;;;;;14.69;36.41;101337.55;105137;1279;70398;-72
2022/04/15 07:55:27;;;;;;;19.80;10.40;;;;;;;14.87;37.91;101334.12;105007;1279;70791;-71
2022/04/15 07:57:56;;;;;;;20.80;11.10;;;;;;;15.03;38.59;101329.52;104982;1279;73890;-71
2022/04/15 08:00:25;;;;;;;21.10;11.20;;;;;;;15.09;36.14;101329.20;105075;1279;60661;-71
2022/04/15 08:02:54;;;;;;;23.40;10.40;;;;;;;15.25;36.42;101324.56;104832;1279;59132;-71
2022/04/15 08:05:23;;;;;;;17.70;9.00;;;;;;;15.33;35.01;101321.77;104940;1279;75155;-72
2022/04/15 08:07:52;;;;;;;20.00;10.40;;;;;;;15.36;35.31;101319.08;104939;1279;72800;-70
2022/04/15 08:10:23;;;;;;;17.40;8.80;;;;;;;15.55;36.14;101319.59;105004;1278;70336;-71
2022/04/15 08:12:52;;;;;;;19.60;8.80;;;;;;;15.55;34.07;101315.03;105008;1279;75152;-70
2022/04/15 08:15:21;;;;;;;16.60;9.40;;;;;;;15.73;35.33;101308.27;105041;1279;61977;-71
2022/04/15 08:17:50;;;;;;;18.70;9.10;;;;;;;15.92;35.85;101308.27;104945;1279;60071;-70
2022/04/15 08:20:19;;;;;;;21.00;8.90;;;;;;;15.95;34.30;101307.07;105040;1279;72296;-72
2022/04/15 08:22:48;;;;;;;18.10;9.20;;;;;;;16.05;33.94;101301.55;104927;1279;70833;-69
2022/04/15 08:25:17;;;;;;;15.50;8.70;;;;;;;16.20;34.04;101304.91;105166;1279;68837;-69
2022/04/15 08:27:46;;;;;;;14.10;8.90;;;;;;;16.35;32.94;101295.52;104801;1279;72452;-70
2022/04/15 08:30:15;;;;;;;17.60;9.30;;;;;;;16.18;32.58;101295.77;104823;1279;60327;-71
2022/04/15 08:32:52;;;;;;;16.80;8.50;;;;;;;16.44;32.92;101286.84;104941;1279;59149;-70
2022/04/15 08:35:21;;;;;;;14.90;8.70;;;;;;;16.68;33.19;101287.01;104883;1279;74737;-69
2022/04/15 08:37:49;;;;;;;13.60;8.10;;;;;;;16.90;33.06;101281.91;105005;1279;71723;-73
2022/04/15 08:40:18;;;;;;;15.10;8.40;;;;;;;17.01;31.88;101276.34;104882;1279;71186;-71
2022/04/15 08:42:47;;;;;;;12.90;7.60;;;;;;;17.09;30.86;101273.70;104844;1279;73124;-71
2022/04/15 08:45:21;;;;;;;13.20;7.80;;;;;;;17.15;31.13;101273.13;104956;1279;60749;-73
2022/04/15 08:47:59;;;;;;;17.50;8.60;;;;;;;17.10;31.31;101267.20;104981;1279;61982;-72
2022/04/15 08:50:31;;;;;;;19.30;8.20;;;;;;;17.16;32.02;101263.72;104989;1279;73597;-72
2022/04/15 08:53:02;;;;;;;15.80;8.70;;;;;;;17.32;32.07;101264.21;105030;1279;72505;-71
2022/04/15 08:55:31;;;;;;;20.80;9.20;;;;;;;17.54;31.67;101261.77;105113;1279;70366;-71
2022/04/15 08:58:00;;;;;;;17.10;8.00;;;;;;;17.70;30.66;101258.13;104871;1277;72608;-72
2022/04/15 09:00:30;;;;;;;14.60;7.50;;;;;;;17.87;30.59;101256.75;104983;1279;60894;-70
2022/04/15 09:02:59;;;;;;;15.30;7.70;;;;;;;17.96;29.76;101249.70;104923;1279;60502;-71
2022/04/15 09:05:28;;;;;;;17.90;7.60;;;;;;;18.12;29.93;101247.33;104921;1279;74452;-71
2022/04/15 09:08:11;;;;;;;17.40;7.80;;;;;;;18.31;30.10;101242.32;105110;1279;73559;-70
2022/04/15 09:10:42;;;;;;;19.80;8.00;;;;;;;18.52;29.51;101241.65;105014;1279;70056;-74
2022/04/15 09:13:22;;;;;;;13.40;7.50;;;;;;;18.67;28.82;101234.27;105041;1279;74342;-72
2022/04/15 09:15:51;;;;;;;14.20;7.30;;;;;;;18.77;28.55;101230.78;105221;1279;59695;-71
2022/04/15 09:18:36;;;;;;;16.30;8.30;;;;;;;18.93;28.63;101229.07;105065;1279;61238;-74
2022/04/15 09:21:24;;;;;;;18.80;7.80;;;;;;;19.10;28.69;101224.50;104966;1279;76180;-71
2022/04/15 09:23:55;;;;;;;16.80;6.90;;;;;;;19.06;27.45;101221.70;104986;1279;62078;-71
2022/04/15 09:26:25;;;;;;;18.90;8.00;;;;;;;19.15;28.10;101217.48;105083;1277;61574;-70
2022/04/15 09:28:54;;;;;;;13.00;6.90;;;;;;;18.98;27.26;101213.05;105072;1279;75193;-74
2022/04/15 09:31:25;;;;;;;13.20;7.30;;;;;;;19.06;26.60;101212.92;105105;1279;61144;-72
2022/04/15 09:33:59;;;;;;;12.10;6.30;;;;;;;19.18;27.18;101208.17;105085;1279;60962;-72
2022/04/15 09:36:34;;;;;;;11.60;6.20;;;;;;;19.34;26.79;101203.16;105155;1279;74373;-72
2022/04/15 09:39:10;;;;;;;18.10;7.30;;;;;;;19.37;26.67;101197.78;105041;1279;73094;-74
2022/04/15 09:41:50;;;;;;;14.20;6.50;;;;;;;19.45;26.82;101196.73;105151;1279;70743;-71
2022/04/15 09:44:21;;;;;;;17.30;7.20;;;;;;;19.49;26.43;101194.04;105084;1279;63768;-71
2022/04/15 09:46:52;;;;;;;12.00;5.40;;;;;;;19.65;26.33;101188.39;105005;1279;59650;-74
2022/04/15 09:49:25;;;;;;;14.00;6.30;;;;;;;19.64;25.82;101183.52;105165;1279;61625;-73
2022/04/15 09:51:54;;;;;;;13.60;6.20;;;;;;;19.63;25.37;101179.39;105125;1279;74567;-71
2022/04/15 09:54:28;;;;;;;12.20;6.00;;;;;;;19.82;25.86;101180.64;105124;1279;61628;-72
2022/04/15 09:56:59;;;;;;;13.70;5.50;;;;;;;20.03;25.59;101179.87;105230;1279;59396;-72
2022/04/15 09:59:29;;;;;;;14.30;5.80;;;;;;;20.10;25.59;101177.13;105097;1279;62651;-70
2022/04/15 10:02:05;;;;;;;22.90;6.30;;;;;;;20.13;25.78;101174.92;105130;1279;57962;-74
2022/04/15 10:04:35;;;;;;;15.00;7.40;;;;;;;20.12;25.73;101174.30;105116;1279;61913;-71
2022/04/15 10:07:07;;;;;;;11.30;6.10;;;;;;;20.24;25.83;101169.68;105117;1279;63102;-71
2022/04/15 10:09:38;;;;;;;12.30;5.00;;;;;;;20.13;25.75;101164.41;105068;1279;72465;-72
2022/04/15 10:12:07;;;;;;;17.30;6.70;;;;;;;20.01;25.44;101164.31;105090;1279;60480;-72
2022/04/15 10:14:38;;;;;;;12.70;5.70;;;;;;;20.27;25.77;101157.71;105051;1279;73560;-73
2022/04/15 10:17:08;;;;;;;10.60;6.00;;;;;;;20.53;25.87;101153.48;104980;1279;62159;-71
2022/04/15 10:19:37;;;;;;;11.40;6.20;;;;;;;20.50;25.27;101144.76;105062;1279;62193;-72
2022/04/15 10:22:06;;;;;;;7.90;5.00;;;;;;;20.54;25.57;101142.23;105096;1279;75116;-72
2022/04/15 10:24:35;;;;;;;10.50;6.20;;;;;;;20.79;25.42;101138.73;105079;1279;61501;-71
2022/04/15 10:27:04;;;;;;;10.70;5.70;;;;;;;21.05;25.09;101130.43;104906;1279;60134;-73
2022/04/15 10:29:33;;;;;;;14.80;6.20;;;;;;;21.45;24.89;101127.25;105080;1279;62698;-73
2022/04/15 10:32:13;;;;;;;10.30;5.70;;;;;;;21.42;24.36;101124.05;105030;1279;59107;-70
2022/04/15 10:34:47;;;;;;;11.30;6.30;;;;;;;21.31;24.33;101122.78;104944;1277;59582;-73
2022/04/15 10:37:17;;;;;;;9.20;5.40;;;;;;;21.70;23.78;101116.86;106040;1276;65371;-71
2022/04/15 10:39:48;;;;;;;12.10;6.20;;;;;;;22.08;23.73;101111.73;105816;1279;72492;-71
2022/04/15 10:42:20;;;;;;;11.40;5.60;;;;;;;22.36;23.21;101106.98;105036;1276;71381;-73
2022/04/15 10:44:49;;;;;;;;;;;;;;;21.96;23.51;101103.79;105010;1279;63679;-74
2022/04/15 10:47:19;;;;;;;12.10;6.30;;;;;;;22.43;23.50;101099.73;104942;1278;61075;-70
2022/04/15 10:50:06;;;;;;;10.80;5.70;;;;;;;22.72;22.92;101101.02;105067;1276;61161;-73
2022/04/15 10:52:37;;;;;;;9.20;5.30;;;;;;;23.78;20.78;101103.06;105053;1276;64943;-74
2022/04/15 10:55:11;;;;;;;9.70;5.80;;;;;;;23.89;20.78;101098.69;105017;1276;60916;-71
2022/04/15 10:57:49;;;;;;;12.00;5.10;;;;;;;23.99;20.70;101092.40;105069;1277;60165;-73
2022/04/15 11:03:26;;;;;;;11.20;5.00;;;;;;;24.03;20.69;101081.84;105126;1276;60532;-73
2022/04/15 11:05:59;;;;;;;8.30;4.40;;;;;;;24.58;19.99;101079.57;104989;1279;60792;-72
2022/04/15 11:08:48;;;;;;;9.20;4.90;;;;;;;24.45;19.55;101076.42;105145;1277;63662;-73
2022/04/15 11:11:32;;;;;;;10.20;5.20;;;;;;;24.37;19.72;101071.55;105069;1279;62435;-74
2022/04/15 11:14:05;;;;;;;9.90;4.70;;;;;;;24.62;19.62;101069.94;105248;1279;59464;-72
2022/04/15 11:16:50;;;;;;;8.30;4.30;;;;;;;24.89;18.67;101061.30;105417;1279;63950;-72
2022/04/15 11:19:24;;;;;;;13.30;5.00;;;;;;;24.70;19.60;101055.67;105229;1277;60698;-72
2022/04/15 11:21:54;;;;;;;7.50;4.50;;;;;;;24.46;19.39;101051.88;105164;1276;59569;-72
2022/04/15 11:24:27;;;;;;;8.40;5.20;;;;;;;24.27;19.37;101051.88;105221;1279;74637;-75
2022/04/15 11:26:58;;;;;;;8.50;4.30;;;;;;;24.62;18.96;101050.24;105149;1277;71630;-71